Time,TemperatureF,DewpointF,PressureIn,WindDirection,WindDirectionDegrees,WindSpeedMPH,WindSpeedGustMPH,Humidity,HourlyPrecipIn,Conditions,Clouds,dailyrainin,SoftwareType,DateUTC
2013-05-21 00:02:00,70.7,68.9,30.06,SW,215,3.0,7.0,94,0.00,,,0.49,meteohub,2013-05-21 04:02:00,
2013-05-21 00:03:00,70.7,68.9,30.06,SSW,208,0.0,7.0,94,0.00,,,0.49,meteohub,2013-05-21 04:03:00,
2013-05-21 00:08:00,70.7,69.3,30.05,South,178,0.0,7.0,95,0.00,,,0.49,meteohub,2013-05-21 04:08:00,
2013-05-21 00:13:00,70.5,69.1,30.05,South,176,0.0,7.0,95,0.00,,,0.00,meteohub,2013-05-21 04:13:00,
2013-05-21 00:18:00,70.5,69.1,30.05,SSW,207,1.0,7.0,95,0.00,,,0.00,meteohub,2013-05-21 04:18:00,
2013-05-21 00:23:00,70.5,69.1,30.05,SSW,196,0.0,4.0,95,0.00,,,0.00,meteohub,2013-05-21 04:23:00,
2013-05-21 00:28:00,70.5,69.1,30.05,South,171,0.0,4.0,95,0.00,,,0.00,meteohub,2013-05-21 04:28:00,
2013-05-21 00:33:00,70.5,69.1,30.05,South,190,0.0,4.0,95,0.00,,,0.00,meteohub,2013-05-21 04:33:00,
2013-05-21 00:38:00,70.5,69.1,30.05,SW,221,2.0,4.0,95,0.00,,,0.00,meteohub,2013-05-21 04:38:00,
2013-05-21 00:43:00,70.5,69.1,30.05,SSW,202,4.0,7.0,95,0.00,,,0.00,meteohub,2013-05-21 04:43:00,
2013-05-21 00:48:00,70.5,69.1,30.05,SSW,211,0.0,7.0,95,0.00,,,0.00,meteohub,2013-05-21 04:48:00,
2013-05-21 00:53:00,70.5,69.1,30.05,WSW,242,0.0,7.0,95,0.00,,,0.00,meteohub,2013-05-21 04:53:00,
2013-05-21 00:58:00,70.5,69.1,30.05,South,179,0.0,7.0,95,0.00,,,0.00,meteohub,2013-05-21 04:58:00,
2013-05-21 01:03:00,70.5,69.1,30.05,South,179,0.0,7.0,95,0.00,,,0.00,meteohub,2013-05-21 05:03:00,
2013-05-21 01:08:00,70.3,68.9,30.04,SSW,206,1.0,3.0,95,0.00,,,0.00,meteohub,2013-05-21 05:08:00,
2013-05-21 01:13:00,70.3,69.1,30.04,SSE,165,0.0,3.0,96,0.00,,,0.00,meteohub,2013-05-21 05:13:00,
2013-05-21 01:18:00,70.3,69.1,30.04,SSW,206,0.0,3.0,96,0.00,,,0.00,meteohub,2013-05-21 05:18:00,
2013-05-21 01:23:00,70.3,69.1,30.04,SSW,194,0.0,3.0,96,0.00,,,0.00,meteohub,2013-05-21 05:23:00,
2013-05-21 01:28:00,70.3,69.1,30.04,SSW,192,0.0,3.0,96,0.00,,,0.00,meteohub,2013-05-21 05:28:00,
2013-05-21 01:33:00,70.2,68.9,30.04,SE,138,0.0,3.0,96,0.00,,,0.00,meteohub,2013-05-21 05:33:00,
2013-05-21 01:38:00,70.2,68.9,30.03,SE,138,0.0,3.0,96,0.00,,,0.00,meteohub,2013-05-21 05:38:00,
2013-05-21 01:43:00,70.2,68.9,30.03,SE,138,0.0,0.0,96,0.00,,,0.00,meteohub,2013-05-21 05:43:00,
2013-05-21 01:48:00,70.0,68.7,30.03,South,171,0.0,0.0,96,0.00,,,0.00,meteohub,2013-05-21 05:48:00,
2013-05-21 01:53:00,70.0,68.7,30.03,South,171,0.0,0.0,96,0.00,,,0.00,meteohub,2013-05-21 05:53:00,
2013-05-21 01:58:00,70.0,68.7,30.03,South,171,0.0,0.0,96,0.00,,,0.00,meteohub,2013-05-21 05:58:00,
2013-05-21 02:03:00,70.0,68.7,30.03,South,171,0.0,0.0,96,0.00,,,0.00,meteohub,2013-05-21 06:03:00,
2013-05-21 02:08:00,69.8,68.5,30.03,South,171,0.0,0.0,96,0.00,,,0.00,meteohub,2013-05-21 06:08:00,
2013-05-21 02:13:00,69.8,68.5,30.02,South,171,0.0,0.0,96,0.00,,,0.00,meteohub,2013-05-21 06:13:00,
2013-05-21 02:18:00,69.6,68.4,30.02,South,171,0.0,0.0,96,0.00,,,0.00,meteohub,2013-05-21 06:18:00,
2013-05-21 02:23:00,69.6,68.4,30.02,South,171,0.0,0.0,96,0.00,,,0.00,meteohub,2013-05-21 06:23:00,
2013-05-21 02:28:00,69.6,68.4,30.02,South,171,0.0,0.0,96,0.00,,,0.00,meteohub,2013-05-21 06:28:00,
2013-05-21 02:33:00,69.6,68.4,30.01,SSW,193,0.0,0.0,96,0.00,,,0.00,meteohub,2013-05-21 06:33:00,
2013-05-21 02:38:00,69.6,68.4,30.02,SSW,213,0.0,0.0,96,0.00,,,0.00,meteohub,2013-05-21 06:38:00,
2013-05-21 02:43:00,69.6,68.7,30.01,SSW,213,0.0,3.0,97,0.00,,,0.00,meteohub,2013-05-21 06:43:00,
2013-05-21 02:48:00,69.6,68.7,30.02,SSW,213,0.0,3.0,97,0.00,,,0.00,meteohub,2013-05-21 06:48:00,
2013-05-21 02:53:00,69.8,68.9,30.01,SSW,213,0.0,3.0,97,0.00,,,0.00,meteohub,2013-05-21 06:53:00,
2013-05-21 02:58:00,70.0,69.1,30.01,SW,218,0.0,3.0,97,0.00,,,0.00,meteohub,2013-05-21 06:58:00,
2013-05-21 03:03:00,70.2,69.3,30.02,WSW,237,3.0,3.0,97,0.00,,,0.00,meteohub,2013-05-21 07:03:00,
2013-05-21 03:08:00,70.3,69.4,30.02,South,179,0.0,3.0,97,0.00,,,0.00,meteohub,2013-05-21 07:08:00,
2013-05-21 03:13:00,70.3,69.4,30.02,SW,217,0.0,3.0,97,0.00,,,0.00,meteohub,2013-05-21 07:13:00,
2013-05-21 03:18:00,70.5,69.6,30.02,SW,227,0.0,3.0,97,0.00,,,0.00,meteohub,2013-05-21 07:18:00,
2013-05-21 03:23:00,70.5,69.6,30.02,SW,227,0.0,3.0,97,0.00,,,0.00,meteohub,2013-05-21 07:23:00,
2013-05-21 03:28:00,70.5,69.3,30.01,SW,227,0.0,3.0,96,0.00,,,0.00,meteohub,2013-05-21 07:28:00,
2013-05-21 03:33:00,70.5,69.3,30.02,SSW,202,0.0,0.0,96,0.00,,,0.00,meteohub,2013-05-21 07:33:00,
2013-05-21 03:38:00,70.5,69.3,30.02,SSW,202,0.0,0.0,96,0.00,,,0.00,meteohub,2013-05-21 07:38:00,
2013-05-21 03:43:00,70.7,69.4,30.02,SSW,202,0.0,0.0,96,0.00,,,0.00,meteohub,2013-05-21 07:43:00,
2013-05-21 03:48:00,70.7,69.4,30.02,SSW,202,0.0,0.0,96,0.00,,,0.00,meteohub,2013-05-21 07:48:00,
2013-05-21 03:53:00,70.7,69.4,30.01,SSW,202,0.0,0.0,96,0.00,,,0.00,meteohub,2013-05-21 07:53:00,
2013-05-21 03:58:00,70.7,69.4,30.01,SSW,202,0.0,0.0,96,0.00,,,0.00,meteohub,2013-05-21 07:58:00,
2013-05-21 04:03:00,70.7,69.4,30.01,SSW,202,0.0,0.0,96,0.00,,,0.00,meteohub,2013-05-21 08:03:00,
2013-05-21 04:08:00,70.7,69.4,30.01,SSW,202,0.0,0.0,96,0.00,,,0.00,meteohub,2013-05-21 08:08:00,
2013-05-21 04:13:00,70.7,69.4,30.01,SSW,202,0.0,0.0,96,0.00,,,0.00,meteohub,2013-05-21 08:13:00,
2013-05-21 04:18:00,70.7,69.4,30.02,SSW,202,0.0,0.0,96,0.00,,,0.00,meteohub,2013-05-21 08:18:00,
2013-05-21 04:23:00,70.9,69.6,30.02,SSW,202,0.0,0.0,96,0.00,,,0.00,meteohub,2013-05-21 08:23:00,
2013-05-21 04:28:00,70.9,69.6,30.02,SSW,202,0.0,0.0,96,0.00,,,0.00,meteohub,2013-05-21 08:28:00,
2013-05-21 04:33:00,70.9,69.6,30.02,SSW,202,0.0,0.0,96,0.00,,,0.00,meteohub,2013-05-21 08:33:00,
2013-05-21 04:38:00,70.9,69.6,30.02,SSW,202,0.0,0.0,96,0.00,,,0.00,meteohub,2013-05-21 08:38:00,
2013-05-21 04:43:00,70.9,69.6,30.02,SSW,202,0.0,0.0,96,0.00,,,0.00,meteohub,2013-05-21 08:43:00,
2013-05-21 04:48:00,70.9,69.6,30.02,SSW,202,0.0,0.0,96,0.00,,,0.00,meteohub,2013-05-21 08:48:00,
2013-05-21 04:53:00,70.9,69.6,30.03,SSW,202,0.0,0.0,96,0.00,,,0.00,meteohub,2013-05-21 08:53:00,
2013-05-21 04:58:00,70.9,69.6,30.03,SSW,202,0.0,0.0,96,0.00,,,0.00,meteohub,2013-05-21 08:58:00,
2013-05-21 05:03:00,70.9,69.6,30.02,SSW,202,0.0,0.0,96,0.00,,,0.00,meteohub,2013-05-21 09:03:00,
2013-05-21 05:08:00,70.9,69.6,30.03,SE,136,0.0,0.0,96,0.00,,,0.00,meteohub,2013-05-21 09:08:00,
2013-05-21 05:13:00,71.1,69.8,30.02,SE,136,0.0,0.0,96,0.00,,,0.00,meteohub,2013-05-21 09:13:00,
2013-05-21 05:18:00,71.1,69.8,30.02,SE,136,0.0,0.0,96,0.00,,,0.00,meteohub,2013-05-21 09:18:00,
2013-05-21 05:23:00,70.9,69.6,30.03,SE,136,0.0,0.0,96,0.00,,,0.00,meteohub,2013-05-21 09:23:00,
2013-05-21 05:28:00,70.9,69.6,30.03,SSE,155,0.0,0.0,96,0.00,,,0.00,meteohub,2013-05-21 09:28:00,
2013-05-21 05:33:00,71.1,69.8,30.03,SSE,159,0.0,0.0,96,0.00,,,0.00,meteohub,2013-05-21 09:33:00,
2013-05-21 05:38:00,71.1,69.8,30.03,WSW,238,0.0,0.0,96,0.00,,,0.00,meteohub,2013-05-21 09:38:00,
2013-05-21 05:44:00,71.1,69.8,30.04,South,174,0.0,0.0,96,0.00,,,0.00,meteohub,2013-05-21 09:44:00,
2013-05-21 05:49:00,71.1,69.8,30.04,South,182,0.0,0.0,96,0.00,,,0.00,meteohub,2013-05-21 09:49:00,
2013-05-21 05:54:00,71.1,69.8,30.04,SSW,192,0.0,0.0,96,0.00,,,0.00,meteohub,2013-05-21 09:54:00,
2013-05-21 05:59:00,71.1,69.8,30.04,SSE,157,2.0,5.0,96,0.00,,,0.00,meteohub,2013-05-21 09:59:00,
2013-05-21 06:04:00,70.9,69.6,30.04,SSW,200,0.0,5.0,96,0.00,,,0.00,meteohub,2013-05-21 10:04:00,
2013-05-21 06:09:00,70.9,69.6,30.04,SSE,150,0.0,5.0,96,0.00,,,0.00,meteohub,2013-05-21 10:09:00,
2013-05-21 06:14:00,70.9,69.6,30.04,SSW,198,1.0,5.0,96,0.00,,,0.00,meteohub,2013-05-21 10:14:00,
2013-05-21 06:19:00,70.9,69.6,30.04,SSW,202,0.0,5.0,96,0.00,,,0.00,meteohub,2013-05-21 10:19:00,
2013-05-21 06:24:00,70.9,69.6,30.04,SSW,212,0.0,5.0,96,0.00,,,0.00,meteohub,2013-05-21 10:24:00,
2013-05-21 06:29:00,70.9,69.6,30.04,SSW,212,0.0,5.0,96,0.00,,,0.00,meteohub,2013-05-21 10:29:00,
2013-05-21 06:34:00,70.7,69.4,30.04,SSW,201,0.0,5.0,96,0.00,,,0.00,meteohub,2013-05-21 10:34:00,
2013-05-21 06:39:00,70.7,69.4,30.04,South,176,5.0,5.0,96,0.00,,,0.00,meteohub,2013-05-21 10:39:00,
2013-05-21 06:44:00,70.9,69.6,30.04,South,169,0.0,3.0,96,0.00,,,0.00,meteohub,2013-05-21 10:44:00,
2013-05-21 06:49:00,70.9,69.6,30.05,South,190,0.0,3.0,96,0.00,,,0.00,meteohub,2013-05-21 10:49:00,
2013-05-21 06:54:00,71.1,69.8,30.05,SSW,201,0.0,3.0,96,0.00,,,0.00,meteohub,2013-05-21 10:54:00,
2013-05-21 06:59:00,71.2,70.0,30.05,SSW,201,0.0,3.0,96,0.00,,,0.00,meteohub,2013-05-21 10:59:00,
2013-05-21 07:04:00,71.4,70.2,30.05,SW,232,0.0,3.0,96,0.00,,,0.00,meteohub,2013-05-21 11:04:00,
2013-05-21 07:09:00,72.0,70.5,30.05,SW,232,0.0,3.0,95,0.00,,,0.00,meteohub,2013-05-21 11:09:00,
2013-05-21 07:14:00,72.1,70.7,30.05,SW,236,0.0,3.0,95,0.00,,,0.00,meteohub,2013-05-21 11:14:00,
2013-05-21 07:19:00,72.3,70.5,30.05,SW,236,3.0,0.0,94,0.00,,,0.00,meteohub,2013-05-21 11:19:00,
2013-05-21 07:24:00,72.7,70.5,30.05,South,179,2.0,0.0,93,0.00,,,0.00,meteohub,2013-05-21 11:24:00,
2013-05-21 07:29:00,72.9,70.3,30.06,South,186,2.0,0.0,92,0.00,,,0.00,meteohub,2013-05-21 11:29:00,
2013-05-21 07:34:00,73.0,70.5,30.06,SSW,209,0.0,0.0,92,0.00,,,0.00,meteohub,2013-05-21 11:34:00,
2013-05-21 07:39:00,73.0,70.3,30.05,SW,219,0.0,0.0,91,0.00,,,0.00,meteohub,2013-05-21 11:39:00,
2013-05-21 07:44:00,73.4,70.5,30.06,SW,227,0.0,0.0,91,0.00,,,0.00,meteohub,2013-05-21 11:44:00,
2013-05-21 07:49:00,73.6,70.5,30.06,South,174,1.0,0.0,90,0.00,,,0.00,meteohub,2013-05-21 11:49:00,
2013-05-21 07:54:00,73.6,70.5,30.06,SW,220,0.0,5.0,90,0.00,,,0.00,meteohub,2013-05-21 11:54:00,
2013-05-21 07:59:00,73.8,70.7,30.06,South,174,4.0,5.0,90,0.00,,,0.00,meteohub,2013-05-21 11:59:00,
2013-05-21 08:04:00,73.9,70.9,30.06,SW,227,0.0,5.0,90,0.00,,,0.00,meteohub,2013-05-21 12:04:00,
2013-05-21 08:09:00,73.9,70.9,30.06,SSW,198,2.0,5.0,90,0.00,,,0.00,meteohub,2013-05-21 12:09:00,
2013-05-21 08:14:00,73.9,70.5,30.06,SW,220,1.0,5.0,89,0.00,,,0.00,meteohub,2013-05-21 12:14:00,
2013-05-21 08:19:00,73.9,70.5,30.07,SW,224,0.0,4.0,89,0.00,,,0.00,meteohub,2013-05-21 12:19:00,
2013-05-21 08:24:00,73.9,70.5,30.07,SW,225,4.0,4.0,89,0.00,,,0.00,meteohub,2013-05-21 12:24:00,
2013-05-21 08:29:00,74.1,70.7,30.07,SW,222,1.0,4.0,89,0.00,,,0.00,meteohub,2013-05-21 12:29:00,
2013-05-21 08:34:00,73.9,70.5,30.07,SSW,213,0.0,4.0,89,0.00,,,0.00,meteohub,2013-05-21 12:34:00,
2013-05-21 08:39:00,73.9,70.5,30.07,SW,217,0.0,4.0,89,0.00,,,0.00,meteohub,2013-05-21 12:39:00,
2013-05-21 08:44:00,73.9,70.5,30.06,SSW,201,0.0,5.0,89,0.00,,,0.00,meteohub,2013-05-21 12:44:00,
2013-05-21 08:49:00,73.9,70.5,30.06,SW,221,0.0,5.0,89,0.00,,,0.00,meteohub,2013-05-21 12:49:00,
2013-05-21 08:54:00,74.1,70.7,30.07,SW,219,0.0,5.0,89,0.00,,,0.00,meteohub,2013-05-21 12:54:00,
2013-05-21 08:59:00,75.0,72.1,30.07,SE,135,2.0,5.0,91,0.00,,,0.00,meteohub,2013-05-21 12:59:00,
2013-05-21 09:04:00,75.6,71.8,30.07,SSW,205,0.0,5.0,88,0.00,,,0.00,meteohub,2013-05-21 13:04:00,
2013-05-21 09:09:00,75.6,71.8,30.07,SW,219,0.0,5.0,88,0.00,,,0.00,meteohub,2013-05-21 13:09:00,
2013-05-21 09:14:00,75.4,71.6,30.07,South,180,2.0,8.0,88,0.00,,,0.00,meteohub,2013-05-21 13:14:00,
2013-05-21 09:19:00,75.4,71.6,30.06,South,186,2.0,8.0,88,0.00,,,0.00,meteohub,2013-05-21 13:19:00,
2013-05-21 09:24:00,75.6,71.4,30.07,SW,215,1.0,8.0,87,0.00,,,0.00,meteohub,2013-05-21 13:24:00,
2013-05-21 09:29:00,75.7,71.6,30.07,SSW,202,2.0,8.0,87,0.00,,,0.00,meteohub,2013-05-21 13:29:00,
2013-05-21 09:34:00,75.7,71.6,30.07,SSW,193,4.0,8.0,87,0.00,,,0.00,meteohub,2013-05-21 13:34:00,
2013-05-21 09:39:00,75.7,71.2,30.07,West,264,3.0,7.0,86,0.00,,,0.00,meteohub,2013-05-21 13:39:00,
2013-05-21 09:44:00,75.7,71.6,30.07,SSW,207,0.0,7.0,87,0.00,,,0.00,meteohub,2013-05-21 13:44:00,
2013-05-21 09:49:00,75.7,71.2,30.06,SSW,202,2.0,7.0,86,0.00,,,0.00,meteohub,2013-05-21 13:49:00,
2013-05-21 09:54:00,75.7,71.2,30.07,SW,235,2.0,7.0,86,0.00,,,0.00,meteohub,2013-05-21 13:54:00,
2013-05-21 09:59:00,75.6,71.1,30.06,South,190,5.0,6.0,86,0.00,,,0.00,meteohub,2013-05-21 13:59:00,
2013-05-21 10:04:00,75.4,70.9,30.07,WSW,250,4.0,6.0,86,0.00,,,0.00,meteohub,2013-05-21 14:04:00,
2013-05-21 10:09:00,75.0,70.5,30.07,SSW,209,4.0,6.0,86,0.00,,,0.00,meteohub,2013-05-21 14:09:00,
2013-05-21 10:14:00,75.4,70.9,30.07,SSW,208,4.0,6.0,86,0.00,,,0.00,meteohub,2013-05-21 14:14:00,
2013-05-21 10:19:00,75.0,70.2,30.07,WSW,252,4.0,6.0,85,0.00,,,0.00,meteohub,2013-05-21 14:19:00,
2013-05-21 10:24:00,75.0,70.5,30.07,SW,225,0.0,6.0,86,0.00,,,0.00,meteohub,2013-05-21 14:24:00,
2013-05-21 10:29:00,75.4,70.5,30.07,SSW,210,5.0,9.0,85,0.00,,,0.00,meteohub,2013-05-21 14:29:00,
2013-05-21 10:34:00,75.7,70.9,30.06,WSW,240,2.0,9.0,85,0.00,,,0.00,meteohub,2013-05-21 14:34:00,
2013-05-21 10:39:00,75.9,70.7,30.06,SW,233,3.0,9.0,84,0.00,,,0.00,meteohub,2013-05-21 14:39:00,
2013-05-21 10:44:00,76.5,71.2,30.06,SW,236,5.0,9.0,84,0.00,,,0.00,meteohub,2013-05-21 14:44:00,
2013-05-21 10:49:00,76.5,70.9,30.07,SW,231,0.0,9.0,83,0.00,,,0.00,meteohub,2013-05-21 14:49:00,
2013-05-21 10:54:00,76.3,70.7,30.07,West,263,3.0,9.0,83,0.00,,,0.00,meteohub,2013-05-21 14:54:00,
2013-05-21 10:59:00,76.3,70.3,30.07,WSW,238,3.0,6.0,82,0.00,,,0.00,meteohub,2013-05-21 14:59:00,
2013-05-21 11:04:00,76.1,69.8,30.07,West,267,2.0,6.0,81,0.00,,,0.00,meteohub,2013-05-21 15:04:00,
2013-05-21 11:09:00,76.3,70.3,30.07,WSW,248,3.0,6.0,82,0.00,,,0.00,meteohub,2013-05-21 15:09:00,
2013-05-21 11:14:00,77.2,70.9,30.07,SW,229,2.0,6.0,81,0.00,,,0.00,meteohub,2013-05-21 15:14:00,
2013-05-21 11:19:00,77.7,70.3,30.06,WSW,249,4.0,6.0,78,0.00,,,0.00,meteohub,2013-05-21 15:19:00,
2013-05-21 11:24:00,77.9,70.5,30.06,SSW,207,5.0,6.0,78,0.00,,,0.00,meteohub,2013-05-21 15:24:00,
2013-05-21 11:29:00,78.6,71.2,30.06,SSW,213,2.0,6.0,78,0.00,,,0.00,meteohub,2013-05-21 15:29:00,
2013-05-21 11:34:00,79.2,70.2,30.07,SW,226,3.0,6.0,74,0.00,,,0.00,meteohub,2013-05-21 15:34:00,
2013-05-21 11:39:00,78.8,70.2,30.07,East,88,0.0,6.0,75,0.00,,,0.00,meteohub,2013-05-21 15:39:00,
2013-05-21 11:44:00,78.6,69.6,30.07,WSW,243,1.0,6.0,74,0.00,,,0.00,meteohub,2013-05-21 15:44:00,
2013-05-21 11:49:00,79.0,69.6,30.06,SW,231,5.0,10.0,73,0.00,,,0.00,meteohub,2013-05-21 15:49:00,
2013-05-21 11:54:00,79.2,69.3,30.06,West,263,1.0,10.0,72,0.00,,,0.00,meteohub,2013-05-21 15:54:00,
2013-05-21 11:59:00,79.3,69.4,30.06,West,260,6.0,10.0,72,0.00,,,0.00,meteohub,2013-05-21 15:59:00,
2013-05-21 12:04:00,79.3,70.0,30.06,SW,232,5.0,10.0,73,0.00,,,0.00,meteohub,2013-05-21 16:04:00,
2013-05-21 12:09:00,79.5,70.9,30.06,NW,324,1.0,10.0,75,0.00,,,0.00,meteohub,2013-05-21 16:09:00,
2013-05-21 12:14:00,79.5,70.9,30.06,East,79,5.0,10.0,75,0.00,,,0.00,meteohub,2013-05-21 16:14:00,
2013-05-21 12:19:00,78.6,70.3,30.06,SW,221,8.0,10.0,76,0.00,,,0.00,meteohub,2013-05-21 16:19:00,
2013-05-21 12:24:00,78.4,70.7,30.06,SSW,205,7.0,10.0,77,0.00,,,0.00,meteohub,2013-05-21 16:24:00,
2013-05-21 12:29:00,78.3,70.5,30.06,West,280,3.0,11.0,77,0.00,,,0.00,meteohub,2013-05-21 16:29:00,
2013-05-21 12:34:00,78.8,71.4,30.06,NNE,20,0.0,11.0,78,0.00,,,0.00,meteohub,2013-05-21 16:34:00,
2013-05-21 12:39:00,78.6,71.2,30.06,South,181,0.0,11.0,78,0.00,,,0.00,meteohub,2013-05-21 16:39:00,
2013-05-21 12:44:00,78.4,71.4,30.06,SW,234,3.0,11.0,79,0.00,,,0.00,meteohub,2013-05-21 16:44:00,
2013-05-21 12:49:00,78.3,71.2,30.05,SSW,203,7.0,11.0,79,0.00,,,0.00,meteohub,2013-05-21 16:49:00,
2013-05-21 12:54:00,78.1,71.8,30.05,ENE,63,1.0,11.0,81,0.00,,,0.00,meteohub,2013-05-21 16:54:00,
2013-05-21 12:59:00,78.6,72.3,30.05,SW,218,9.0,11.0,81,0.00,,,0.00,meteohub,2013-05-21 16:59:00,
2013-05-21 13:04:00,79.0,72.3,30.05,WSW,249,4.0,11.0,80,0.00,,,0.00,meteohub,2013-05-21 17:04:00,
2013-05-21 13:09:00,79.0,72.7,30.05,SSW,207,3.0,11.0,81,0.00,,,0.00,meteohub,2013-05-21 17:09:00,
2013-05-21 13:14:00,79.5,72.9,30.05,East,79,2.0,13.0,80,0.00,,,0.00,meteohub,2013-05-21 17:14:00,
2013-05-21 13:19:00,79.5,72.9,30.04,SSE,157,4.0,13.0,80,0.00,,,0.00,meteohub,2013-05-21 17:19:00,
2013-05-21 13:24:00,79.7,72.7,30.05,SSW,213,4.0,13.0,79,0.00,,,0.00,meteohub,2013-05-21 17:24:00,
2013-05-21 13:29:00,80.1,72.5,30.05,South,173,0.0,14.0,78,0.00,,,0.00,meteohub,2013-05-21 17:29:00,
2013-05-21 13:34:00,80.2,72.3,30.04,South,180,5.0,14.0,77,0.00,,,0.00,meteohub,2013-05-21 17:34:00,
2013-05-21 13:39:00,80.8,73.2,30.04,East,94,7.0,14.0,78,0.00,,,0.00,meteohub,2013-05-21 17:39:00,
2013-05-21 13:44:00,80.6,73.0,30.04,SW,232,3.0,12.0,78,0.00,,,0.00,meteohub,2013-05-21 17:44:00,
2013-05-21 13:49:00,81.0,72.7,30.04,South,190,0.0,12.0,76,0.00,,,0.00,meteohub,2013-05-21 17:49:00,
2013-05-21 13:54:00,81.1,72.9,30.03,ESE,120,4.0,12.0,76,0.00,,,0.00,meteohub,2013-05-21 17:54:00,
2013-05-21 13:59:00,81.1,72.5,30.03,WSW,240,3.0,12.0,75,0.00,,,0.00,meteohub,2013-05-21 17:59:00,
2013-05-21 14:04:00,81.3,72.3,30.03,SSW,198,2.0,12.0,74,0.00,,,0.00,meteohub,2013-05-21 18:04:00,
2013-05-21 14:09:00,81.1,72.1,30.03,West,269,4.0,12.0,74,0.00,,,0.00,meteohub,2013-05-21 18:09:00,
2013-05-21 14:14:00,81.1,72.9,30.03,SW,219,6.0,12.0,76,0.00,,,0.00,meteohub,2013-05-21 18:14:00,
2013-05-21 14:19:00,81.3,73.0,30.02,SW,226,4.0,12.0,76,0.00,,,0.00,meteohub,2013-05-21 18:19:00,
2013-05-21 14:24:00,81.7,72.5,30.02,SW,221,10.0,12.0,74,0.00,,,0.00,meteohub,2013-05-21 18:24:00,
2013-05-21 14:29:00,81.7,71.4,30.02,SSW,213,7.0,14.0,71,0.00,,,0.00,meteohub,2013-05-21 18:29:00,
2013-05-21 14:34:00,81.9,71.6,30.02,WSW,239,5.0,14.0,71,0.00,,,0.00,meteohub,2013-05-21 18:34:00,
2013-05-21 14:39:00,81.3,70.5,30.02,SSW,209,10.0,14.0,70,0.00,,,0.00,meteohub,2013-05-21 18:39:00,
2013-05-21 14:44:00,81.1,71.2,30.02,East,85,3.0,14.0,72,0.00,,,0.00,meteohub,2013-05-21 18:44:00,
2013-05-21 14:49:00,81.1,71.2,30.01,West,281,4.0,14.0,72,0.00,,,0.00,meteohub,2013-05-21 18:49:00,
2013-05-21 14:54:00,81.1,70.3,30.01,SW,228,0.0,14.0,70,0.00,,,0.00,meteohub,2013-05-21 18:54:00,
2013-05-21 14:59:00,81.3,70.5,30.01,SW,227,4.0,15.0,70,0.00,,,0.00,meteohub,2013-05-21 18:59:00,
2013-05-21 15:04:00,81.5,70.3,30.01,SSW,199,8.0,15.0,69,0.00,,,0.00,meteohub,2013-05-21 19:04:00,
2013-05-21 15:09:00,81.3,71.1,30.01,SSW,212,4.0,15.0,71,0.00,,,0.00,meteohub,2013-05-21 19:09:00,
2013-05-21 15:14:00,81.7,72.5,30.01,SSW,192,0.0,13.0,74,0.00,,,0.00,meteohub,2013-05-21 19:14:00,
2013-05-21 15:19:00,81.0,72.0,30.01,SSW,192,0.0,13.0,74,0.00,,,0.00,meteohub,2013-05-21 19:19:00,
2013-05-21 15:24:00,80.2,71.2,30.01,ENE,76,2.0,13.0,74,0.00,,,0.00,meteohub,2013-05-21 19:24:00,
2013-05-21 15:29:00,80.1,71.8,30.01,SSW,192,5.0,10.0,76,0.00,,,0.00,meteohub,2013-05-21 19:29:00,
2013-05-21 15:34:00,80.2,71.6,30.00,ENE,75,4.0,10.0,75,0.00,,,0.00,meteohub,2013-05-21 19:34:00,
2013-05-21 15:39:00,80.6,71.6,30.00,SW,215,1.0,10.0,74,0.00,,,0.00,meteohub,2013-05-21 19:39:00,
2013-05-21 15:44:00,80.4,71.8,30.00,West,267,4.0,12.0,75,0.00,,,0.00,meteohub,2013-05-21 19:44:00,
2013-05-21 15:49:00,80.1,71.1,30.00,ESE,113,0.0,12.0,74,0.00,,,0.00,meteohub,2013-05-21 19:49:00,
2013-05-21 15:54:00,79.5,70.9,29.99,SSW,206,7.0,12.0,75,0.00,,,0.00,meteohub,2013-05-21 19:54:00,
2013-05-21 15:59:00,79.3,70.7,29.99,East,86,4.0,12.0,75,0.00,,,0.00,meteohub,2013-05-21 19:59:00,
2013-05-21 16:04:00,79.5,70.5,30.00,NNE,27,1.0,12.0,74,0.00,,,0.00,meteohub,2013-05-21 20:04:00,
2013-05-21 16:09:00,79.2,70.2,30.00,WSW,252,0.0,12.0,74,0.00,,,0.00,meteohub,2013-05-21 20:09:00,
2013-05-21 16:14:00,78.6,70.0,29.99,South,183,1.0,17.0,75,0.00,,,0.00,meteohub,2013-05-21 20:14:00,
2013-05-21 16:19:00,78.4,70.2,29.99,ENE,74,1.0,17.0,76,0.00,,,0.00,meteohub,2013-05-21 20:19:00,
2013-05-21 16:24:00,78.3,70.0,30.00,West,259,1.0,17.0,76,0.00,,,0.00,meteohub,2013-05-21 20:24:00,
2013-05-21 16:29:00,78.3,70.5,30.00,WNW,294,1.0,11.0,77,0.00,,,0.00,meteohub,2013-05-21 20:29:00,
2013-05-21 16:34:00,78.3,70.5,30.00,South,180,1.0,11.0,77,0.00,,,0.00,meteohub,2013-05-21 20:34:00,
2013-05-21 16:39:00,78.4,70.2,30.00,ENE,57,0.0,11.0,76,0.00,,,0.00,meteohub,2013-05-21 20:39:00,
2013-05-21 16:44:00,78.6,70.3,30.00,South,179,2.0,7.0,76,0.00,,,0.00,meteohub,2013-05-21 20:44:00,
2013-05-21 16:49:00,78.6,70.0,30.01,SSW,209,3.0,7.0,75,0.00,,,0.00,meteohub,2013-05-21 20:49:00,
2013-05-21 16:54:00,78.3,70.0,30.00,WSW,245,3.0,7.0,76,0.00,,,0.00,meteohub,2013-05-21 20:54:00,
2013-05-21 16:59:00,78.3,69.6,30.00,SSW,200,0.0,11.0,75,0.00,,,0.00,meteohub,2013-05-21 20:59:00,
2013-05-21 17:04:00,78.3,69.6,30.00,ESE,118,5.0,11.0,75,0.00,,,0.00,meteohub,2013-05-21 21:04:00,
2013-05-21 17:09:00,78.3,70.0,30.00,South,169,0.0,11.0,76,0.00,,,0.00,meteohub,2013-05-21 21:09:00,
2013-05-21 17:14:00,78.4,70.7,29.99,ENE,67,1.0,9.0,77,0.00,,,0.00,meteohub,2013-05-21 21:14:00,
2013-05-21 17:19:00,78.4,70.2,29.99,WSW,250,2.0,9.0,76,0.00,,,0.00,meteohub,2013-05-21 21:19:00,
2013-05-21 17:24:00,78.4,70.2,29.99,South,180,0.0,9.0,76,0.00,,,0.00,meteohub,2013-05-21 21:24:00,
2013-05-21 17:29:00,78.3,70.0,30.00,ENE,62,0.0,7.0,76,0.00,,,0.00,meteohub,2013-05-21 21:29:00,
2013-05-21 17:34:00,78.3,70.0,30.00,SW,222,5.0,7.0,76,0.00,,,0.00,meteohub,2013-05-21 21:34:00,
2013-05-21 17:39:00,78.1,70.0,29.99,ESE,117,0.0,7.0,76,0.00,,,0.00,meteohub,2013-05-21 21:39:00,
2013-05-21 17:44:00,78.1,70.0,29.99,ESE,108,5.0,8.0,76,0.00,,,0.00,meteohub,2013-05-21 21:44:00,
2013-05-21 17:49:00,77.7,70.0,30.00,SSE,153,6.0,8.0,77,0.00,,,0.00,meteohub,2013-05-21 21:49:00,
2013-05-21 17:54:00,77.5,70.5,30.00,East,82,0.0,8.0,79,0.00,,,0.00,meteohub,2013-05-21 21:54:00,
2013-05-21 17:59:00,77.5,70.2,30.00,SSW,195,0.0,12.0,78,0.00,,,0.00,meteohub,2013-05-21 21:59:00,
2013-05-21 18:04:00,77.2,69.8,30.00,SSW,213,5.0,12.0,78,0.00,,,0.00,meteohub,2013-05-21 22:04:00,
2013-05-21 18:09:00,76.5,69.8,30.00,SSE,150,1.0,12.0,80,0.00,,,0.00,meteohub,2013-05-21 22:09:00,
2013-05-21 18:15:00,75.7,69.4,30.00,WSW,244,0.0,12.0,81,0.00,,,0.00,meteohub,2013-05-21 22:15:00,
2013-05-21 18:19:00,75.7,69.4,30.00,West,271,0.0,12.0,81,0.00,,,0.00,meteohub,2013-05-21 22:19:00,
2013-05-21 18:25:00,75.7,69.4,30.00,SSW,202,3.0,12.0,81,0.00,,,0.00,meteohub,2013-05-21 22:25:00,
2013-05-21 18:30:00,75.7,69.4,30.00,SSW,205,4.0,12.0,81,0.00,,,0.00,meteohub,2013-05-21 22:30:00,
2013-05-21 18:35:00,75.7,69.8,30.01,SSE,148,0.0,12.0,82,0.00,,,0.00,meteohub,2013-05-21 22:35:00,
2013-05-21 18:40:00,75.6,70.0,30.01,NE,47,0.0,7.0,83,0.00,,,0.00,meteohub,2013-05-21 22:40:00,
2013-05-21 18:45:00,75.2,69.6,30.01,SSW,199,0.0,7.0,83,0.00,,,0.00,meteohub,2013-05-21 22:45:00,
2013-05-21 18:50:00,74.8,69.6,30.01,SW,222,1.0,7.0,84,0.00,,,0.00,meteohub,2013-05-21 22:50:00,
2013-05-21 18:55:00,74.7,69.8,30.01,SSW,205,0.0,7.0,85,0.00,,,0.00,meteohub,2013-05-21 22:55:00,
2013-05-21 19:00:00,74.7,69.8,30.01,SE,142,4.0,7.0,85,0.00,,,0.00,meteohub,2013-05-21 23:00:00,
2013-05-21 19:05:00,74.5,70.0,30.01,SSW,206,3.0,6.0,86,0.00,,,0.00,meteohub,2013-05-21 23:05:00,
2013-05-21 19:10:00,74.1,70.0,30.01,ENE,78,0.0,6.0,87,0.00,,,0.00,meteohub,2013-05-21 23:10:00,
2013-05-21 19:15:00,73.9,69.8,30.01,SW,223,1.0,6.0,87,0.00,,,0.00,meteohub,2013-05-21 23:15:00,
2013-05-21 19:20:00,73.8,70.0,30.01,WSW,246,0.0,6.0,88,0.00,,,0.00,meteohub,2013-05-21 23:20:00,
2013-05-21 19:25:00,73.6,69.8,30.01,SSW,211,0.0,6.0,88,0.00,,,0.00,meteohub,2013-05-21 23:25:00,
2013-05-21 19:30:00,73.2,69.4,30.01,SSW,205,1.0,6.0,88,0.00,,,0.00,meteohub,2013-05-21 23:30:00,
2013-05-21 19:35:00,73.2,69.4,30.00,SW,215,0.0,6.0,88,0.00,,,0.00,meteohub,2013-05-21 23:35:00,
2013-05-21 19:40:00,73.0,69.3,30.00,SW,217,0.0,5.0,88,0.00,,,0.00,meteohub,2013-05-21 23:40:00,
2013-05-21 19:45:00,72.9,69.4,30.00,SSW,194,1.0,5.0,89,0.00,,,0.00,meteohub,2013-05-21 23:45:00,
2013-05-21 19:50:00,72.9,69.4,30.00,SE,130,2.0,5.0,89,0.00,,,0.00,meteohub,2013-05-21 23:50:00,
2013-05-21 19:55:00,72.7,69.3,29.99,WSW,250,0.0,8.0,89,0.00,,,0.00,meteohub,2013-05-21 23:55:00,
2013-05-21 20:00:00,72.5,69.1,29.99,NW,313,0.0,8.0,89,0.00,,,0.00,meteohub,2013-05-22 00:00:00,
2013-05-21 20:05:00,72.3,68.9,29.99,SSW,200,0.0,8.0,89,0.00,,,0.00,meteohub,2013-05-22 00:05:00,
2013-05-21 20:10:00,72.3,68.9,29.99,SSE,159,0.0,8.0,89,0.00,,,0.00,meteohub,2013-05-22 00:10:00,
2013-05-21 20:15:00,72.1,69.1,29.99,SSW,192,3.0,9.0,90,0.00,,,0.00,meteohub,2013-05-22 00:15:00,
2013-05-21 20:20:00,72.1,69.1,29.99,SSW,209,3.0,9.0,90,0.00,,,0.00,meteohub,2013-05-22 00:20:00,
2013-05-21 20:25:00,72.0,68.9,29.99,WSW,240,1.0,9.0,90,0.00,,,0.00,meteohub,2013-05-22 00:25:00,
2013-05-21 20:30:00,71.8,68.7,29.99,NE,42,0.0,6.0,90,0.00,,,0.00,meteohub,2013-05-22 00:30:00,
2013-05-21 20:35:00,71.8,68.7,29.99,SSW,205,0.0,6.0,90,0.00,,,0.00,meteohub,2013-05-22 00:35:00,
2013-05-21 20:40:00,71.6,68.5,29.99,SW,214,3.0,6.0,90,0.00,,,0.00,meteohub,2013-05-22 00:40:00,
2013-05-21 20:45:00,71.4,68.4,29.99,SW,226,1.0,6.0,90,0.00,,,0.00,meteohub,2013-05-22 00:45:00,
2013-05-21 20:50:00,71.4,68.7,29.99,SSW,211,0.0,8.0,91,0.00,,,0.00,meteohub,2013-05-22 00:50:00,
2013-05-21 20:55:00,71.4,68.7,29.99,SW,225,1.0,8.0,91,0.00,,,0.00,meteohub,2013-05-22 00:55:00,
2013-05-21 21:00:00,71.4,68.7,29.99,South,190,0.0,8.0,91,0.00,,,0.00,meteohub,2013-05-22 01:00:00,
2013-05-21 21:05:00,71.2,68.5,29.99,SW,219,4.0,5.0,91,0.00,,,0.00,meteohub,2013-05-22 01:05:00,
2013-05-21 21:10:00,71.2,68.5,29.99,SSW,194,0.0,5.0,91,0.00,,,0.00,meteohub,2013-05-22 01:10:00,
2013-05-21 21:15:00,71.2,68.5,29.99,SSW,192,0.0,5.0,91,0.00,,,0.00,meteohub,2013-05-22 01:15:00,
2013-05-21 21:20:00,71.2,68.5,29.99,SSW,213,0.0,7.0,91,0.00,,,0.00,meteohub,2013-05-22 01:20:00,
2013-05-21 21:25:00,71.2,68.5,29.99,SSW,192,1.0,7.0,91,0.00,,,0.00,meteohub,2013-05-22 01:25:00,
2013-05-21 21:30:00,71.1,68.4,30.00,SW,231,0.0,7.0,91,0.00,,,0.00,meteohub,2013-05-22 01:30:00,
2013-05-21 21:35:00,71.1,68.4,30.00,SW,214,0.0,8.0,91,0.00,,,0.00,meteohub,2013-05-22 01:35:00,
2013-05-21 21:40:00,71.1,68.4,30.00,SSW,211,0.0,8.0,91,0.00,,,0.00,meteohub,2013-05-22 01:40:00,
2013-05-21 21:45:00,71.1,68.4,30.00,SSW,213,1.0,8.0,91,0.00,,,0.00,meteohub,2013-05-22 01:45:00,
2013-05-21 21:50:00,71.1,68.4,30.01,South,190,0.0,6.0,91,0.00,,,0.00,meteohub,2013-05-22 01:50:00,
2013-05-21 21:55:00,70.9,68.2,30.01,SSW,194,2.0,6.0,91,0.00,,,0.00,meteohub,2013-05-22 01:55:00,
2013-05-21 22:00:00,70.9,68.4,30.01,SW,219,0.0,6.0,92,0.00,,,0.00,meteohub,2013-05-22 02:00:00,
2013-05-21 22:05:00,70.9,68.4,30.01,SSW,209,0.0,5.0,92,0.00,,,0.00,meteohub,2013-05-22 02:05:00,
2013-05-21 22:10:00,70.7,68.2,30.01,South,188,0.0,5.0,92,0.00,,,0.00,meteohub,2013-05-22 02:10:00,
2013-05-21 22:15:00,70.7,68.2,30.01,SSW,212,0.0,5.0,92,0.00,,,0.00,meteohub,2013-05-22 02:15:00,
2013-05-21 22:20:00,70.5,68.4,30.01,SSW,210,0.0,3.0,93,0.00,,,0.00,meteohub,2013-05-22 02:20:00,
2013-05-21 22:25:00,70.5,68.0,30.01,SSW,198,0.0,3.0,92,0.00,,,0.00,meteohub,2013-05-22 02:25:00,
2013-05-21 22:30:00,70.5,68.4,30.02,SSW,198,0.0,3.0,93,0.00,,,0.00,meteohub,2013-05-22 02:30:00,
2013-05-21 22:35:00,70.5,68.4,30.02,SSW,198,0.0,3.0,93,0.00,,,0.00,meteohub,2013-05-22 02:35:00,
2013-05-21 22:40:00,70.3,68.2,30.02,SW,229,0.0,3.0,93,0.00,,,0.00,meteohub,2013-05-22 02:40:00,
2013-05-21 22:45:00,70.3,68.2,30.02,SW,229,0.0,3.0,93,0.00,,,0.00,meteohub,2013-05-22 02:45:00,
2013-05-21 22:50:00,70.3,68.2,30.01,SW,229,0.0,0.0,93,0.00,,,0.00,meteohub,2013-05-22 02:50:00,
2013-05-21 22:55:00,70.2,68.0,30.02,SW,217,0.0,0.0,93,0.00,,,0.00,meteohub,2013-05-22 02:55:00,
2013-05-21 23:00:00,70.2,68.0,30.02,South,187,0.0,0.0,93,0.00,,,0.00,meteohub,2013-05-22 03:00:00,
2013-05-21 23:05:00,70.2,68.0,30.02,SSE,154,0.0,0.0,93,0.00,,,0.00,meteohub,2013-05-22 03:05:00,
2013-05-21 23:10:00,70.0,67.8,30.02,SSE,154,0.0,0.0,93,0.00,,,0.00,meteohub,2013-05-22 03:10:00,
2013-05-21 23:15:00,70.0,67.8,30.02,SSE,154,0.0,0.0,93,0.00,,,0.00,meteohub,2013-05-22 03:15:00,
2013-05-21 23:20:00,70.0,68.2,30.02,SSW,200,0.0,0.0,94,0.00,,,0.00,meteohub,2013-05-22 03:20:00,
2013-05-21 23:25:00,70.0,68.2,30.02,SSW,200,0.0,0.0,94,0.00,,,0.00,meteohub,2013-05-22 03:25:00,
2013-05-21 23:30:00,70.0,68.2,30.02,SSW,200,0.0,0.0,94,0.00,,,0.00,meteohub,2013-05-22 03:30:00,
2013-05-21 23:35:00,70.0,68.2,30.02,South,181,0.0,0.0,94,0.00,,,0.00,meteohub,2013-05-22 03:35:00,
2013-05-21 23:40:00,70.0,68.2,30.02,South,191,0.0,0.0,94,0.00,,,0.00,meteohub,2013-05-22 03:40:00,
2013-05-21 23:45:00,70.2,68.4,30.02,South,180,0.0,0.0,94,0.00,,,0.00,meteohub,2013-05-22 03:45:00,
2013-05-21 23:50:00,70.2,68.7,30.02,South,190,1.0,5.0,95,0.00,,,0.00,meteohub,2013-05-22 03:50:00,
2013-05-21 23:55:00,70.3,68.9,30.02,SW,228,5.0,5.0,95,0.00,,,0.00,meteohub,2013-05-22 03:55:00,